sensor_id;sensor_type;location;lat;lon;timestamp;P1;durP1;ratioP1;P2;durP2;ratioP2
26052;SDS011;13826;51.186;4.450;2022-09-09T00:06:50;14.43;;;4.40;;
26052;SDS011;13826;51.186;4.450;2022-09-09T00:09:28;11.93;;;4.63;;
26052;SDS011;13826;51.186;4.450;2022-09-09T00:17:47;11.55;;;5.05;;
26052;SDS011;13826;51.186;4.450;2022-09-09T00:20:42;10.73;;;4.53;;
26052;SDS011;13826;51.186;4.450;2022-09-09T00:23:26;8.55;;;3.53;;
26052;SDS011;13826;51.186;4.450;2022-09-09T00:26:04;8.05;;;3.90;;
26052;SDS011;13826;51.186;4.450;2022-09-09T00:31:28;11.07;;;3.55;;
26052;SDS011;13826;51.186;4.450;2022-09-09T00:34:09;7.53;;;3.85;;
26052;SDS011;13826;51.186;4.450;2022-09-09T00:36:39;9.25;;;3.08;;
26052;SDS011;13826;51.186;4.450;2022-09-09T00:39:08;7.10;;;3.20;;
26052;SDS011;13826;51.186;4.450;2022-09-09T00:44:58;10.95;;;4.25;;
26052;SDS011;13826;51.186;4.450;2022-09-09T00:57:46;10.95;;;3.55;;
26052;SDS011;13826;51.186;4.450;2022-09-09T01:08:03;8.30;;;2.83;;
26052;SDS011;13826;51.186;4.450;2022-09-09T01:10:47;7.03;;;2.65;;
26052;SDS011;13826;51.186;4.450;2022-09-09T01:13:22;12.63;;;3.75;;
26052;SDS011;13826;51.186;4.450;2022-09-09T01:15:50;5.22;;;2.67;;
26052;SDS011;13826;51.186;4.450;2022-09-09T01:18:19;7.53;;;3.05;;
26052;SDS011;13826;51.186;4.450;2022-09-09T01:26:39;8.73;;;3.30;;
26052;SDS011;13826;51.186;4.450;2022-09-09T01:29:13;6.82;;;3.13;;
26052;SDS011;13826;51.186;4.450;2022-09-09T01:32:00;11.55;;;3.00;;
26052;SDS011;13826;51.186;4.450;2022-09-09T01:34:31;8.45;;;3.08;;
26052;SDS011;13826;51.186;4.450;2022-09-09T01:37:02;6.78;;;2.88;;
26052;SDS011;13826;51.186;4.450;2022-09-09T01:39:36;6.88;;;3.03;;
26052;SDS011;13826;51.186;4.450;2022-09-09T01:42:04;6.70;;;3.08;;
26052;SDS011;13826;51.186;4.450;2022-09-09T01:44:34;8.35;;;3.50;;
26052;SDS011;13826;51.186;4.450;2022-09-09T01:47:02;7.85;;;2.67;;
26052;SDS011;13826;51.186;4.450;2022-09-09T01:49:28;6.70;;;3.72;;
26052;SDS011;13826;51.186;4.450;2022-09-09T01:51:53;11.13;;;2.63;;
26052;SDS011;13826;51.186;4.450;2022-09-09T01:54:21;10.88;;;2.95;;
26052;SDS011;13826;51.186;4.450;2022-09-09T01:59:45;9.82;;;3.20;;
26052;SDS011;13826;51.186;4.450;2022-09-09T02:08:09;6.28;;;2.72;;
26052;SDS011;13826;51.186;4.450;2022-09-09T02:10:45;8.07;;;3.22;;
26052;SDS011;13826;51.186;4.450;2022-09-09T02:13:17;8.05;;;2.72;;
26052;SDS011;13826;51.186;4.450;2022-09-09T02:15:52;7.40;;;2.67;;
26052;SDS011;13826;51.186;4.450;2022-09-09T02:19:08;10.02;;;3.60;;
26052;SDS011;13826;51.186;4.450;2022-09-09T02:21:25;10.85;;;3.13;;
26052;SDS011;13826;51.186;4.450;2022-09-09T02:23:57;7.78;;;2.40;;
26052;SDS011;13826;51.186;4.450;2022-09-09T02:26:25;7.80;;;2.63;;
26052;SDS011;13826;51.186;4.450;2022-09-09T02:28:52;10.70;;;3.20;;
26052;SDS011;13826;51.186;4.450;2022-09-09T02:31:22;7.65;;;2.78;;
26052;SDS011;13826;51.186;4.450;2022-09-09T02:33:55;5.85;;;2.55;;
26052;SDS011;13826;51.186;4.450;2022-09-09T02:36:25;6.85;;;2.78;;
26052;SDS011;13826;51.186;4.450;2022-09-09T02:38:54;8.48;;;2.97;;
26052;SDS011;13826;51.186;4.450;2022-09-09T02:41:24;9.23;;;3.00;;
26052;SDS011;13826;51.186;4.450;2022-09-09T02:43:55;4.95;;;2.35;;
26052;SDS011;13826;51.186;4.450;2022-09-09T02:46:27;8.27;;;2.90;;
26052;SDS011;13826;51.186;4.450;2022-09-09T02:52:38;8.25;;;3.00;;
26052;SDS011;13826;51.186;4.450;2022-09-09T02:57:57;9.63;;;2.95;;
26052;SDS011;13826;51.186;4.450;2022-09-09T03:00:27;5.88;;;2.83;;
26052;SDS011;13826;51.186;4.450;2022-09-09T03:02:53;9.13;;;2.78;;
26052;SDS011;13826;51.186;4.450;2022-09-09T03:05:21;19.10;;;4.22;;
26052;SDS011;13826;51.186;4.450;2022-09-09T03:07:47;12.43;;;2.97;;
26052;SDS011;13826;51.186;4.450;2022-09-09T03:10:12;12.88;;;3.17;;
26052;SDS011;13826;51.186;4.450;2022-09-09T03:12:38;7.78;;;3.10;;
26052;SDS011;13826;51.186;4.450;2022-09-09T03:15:04;9.52;;;2.90;;
26052;SDS011;13826;51.186;4.450;2022-09-09T03:17:31;9.88;;;3.20;;
26052;SDS011;13826;51.186;4.450;2022-09-09T03:20:00;7.47;;;2.70;;
26052;SDS011;13826;51.186;4.450;2022-09-09T03:22:30;9.05;;;2.90;;
26052;SDS011;13826;51.186;4.450;2022-09-09T03:24:56;6.05;;;2.42;;
26052;SDS011;13826;51.186;4.450;2022-09-09T03:27:22;11.63;;;2.85;;
26052;SDS011;13826;51.186;4.450;2022-09-09T03:29:47;8.05;;;2.72;;
26052;SDS011;13826;51.186;4.450;2022-09-09T03:32:15;11.82;;;3.17;;
26052;SDS011;13826;51.186;4.450;2022-09-09T03:34:42;10.45;;;2.90;;
26052;SDS011;13826;51.186;4.450;2022-09-09T03:37:08;17.42;;;3.28;;
26052;SDS011;13826;51.186;4.450;2022-09-09T03:39:34;9.38;;;2.80;;
26052;SDS011;13826;51.186;4.450;2022-09-09T03:41:59;10.63;;;3.22;;
26052;SDS011;13826;51.186;4.450;2022-09-09T03:44:29;7.05;;;2.85;;
26052;SDS011;13826;51.186;4.450;2022-09-09T03:46:55;14.65;;;3.28;;
26052;SDS011;13826;51.186;4.450;2022-09-09T03:49:21;9.77;;;2.72;;
26052;SDS011;13826;51.186;4.450;2022-09-09T03:51:47;14.20;;;3.25;;
26052;SDS011;13826;51.186;4.450;2022-09-09T03:54:13;12.93;;;2.85;;
26052;SDS011;13826;51.186;4.450;2022-09-09T03:56:39;15.18;;;3.17;;
26052;SDS011;13826;51.186;4.450;2022-09-09T03:59:06;12.13;;;3.42;;
26052;SDS011;13826;51.186;4.450;2022-09-09T04:01:33;12.05;;;2.75;;
26052;SDS011;13826;51.186;4.450;2022-09-09T04:03:59;14.77;;;2.80;;
26052;SDS011;13826;51.186;4.450;2022-09-09T04:06:27;13.27;;;2.72;;
26052;SDS011;13826;51.186;4.450;2022-09-09T04:08:53;10.80;;;2.97;;
26052;SDS011;13826;51.186;4.450;2022-09-09T04:11:20;7.47;;;2.75;;
26052;SDS011;13826;51.186;4.450;2022-09-09T04:13:45;10.32;;;2.65;;
26052;SDS011;13826;51.186;4.450;2022-09-09T04:16:12;18.38;;;3.38;;
26052;SDS011;13826;51.186;4.450;2022-09-09T04:18:39;10.35;;;2.60;;
26052;SDS011;13826;51.186;4.450;2022-09-09T04:21:05;17.02;;;3.15;;
26052;SDS011;13826;51.186;4.450;2022-09-09T04:23:35;11.93;;;2.85;;
26052;SDS011;13826;51.186;4.450;2022-09-09T04:26:01;13.82;;;3.25;;
26052;SDS011;13826;51.186;4.450;2022-09-09T04:28:29;17.27;;;3.10;;
26052;SDS011;13826;51.186;4.450;2022-09-09T04:30:56;8.30;;;2.90;;
26052;SDS011;13826;51.186;4.450;2022-09-09T04:33:28;11.85;;;3.00;;
26052;SDS011;13826;51.186;4.450;2022-09-09T04:35:54;15.23;;;3.45;;
26052;SDS011;13826;51.186;4.450;2022-09-09T04:38:20;12.75;;;2.83;;
26052;SDS011;13826;51.186;4.450;2022-09-09T04:40:48;13.52;;;2.85;;
26052;SDS011;13826;51.186;4.450;2022-09-09T04:43:15;14.82;;;2.80;;
26052;SDS011;13826;51.186;4.450;2022-09-09T04:45:43;16.77;;;3.30;;
26052;SDS011;13826;51.186;4.450;2022-09-09T04:48:12;16.73;;;4.05;;
26052;SDS011;13826;51.186;4.450;2022-09-09T04:50:38;9.63;;;3.03;;
26052;SDS011;13826;51.186;4.450;2022-09-09T04:53:05;12.73;;;2.70;;
26052;SDS011;13826;51.186;4.450;2022-09-09T04:55:31;15.80;;;3.50;;
26052;SDS011;13826;51.186;4.450;2022-09-09T04:57:57;11.70;;;3.25;;
26052;SDS011;13826;51.186;4.450;2022-09-09T05:00:23;13.93;;;3.22;;
26052;SDS011;13826;51.186;4.450;2022-09-09T05:02:49;12.63;;;2.60;;
26052;SDS011;13826;51.186;4.450;2022-09-09T05:05:16;12.73;;;2.75;;
26052;SDS011;13826;51.186;4.450;2022-09-09T05:07:41;13.15;;;3.22;;
26052;SDS011;13826;51.186;4.450;2022-09-09T05:10:08;15.13;;;2.40;;
26052;SDS011;13826;51.186;4.450;2022-09-09T05:12:35;13.48;;;3.20;;
26052;SDS011;13826;51.186;4.450;2022-09-09T05:15:01;20.15;;;3.25;;
26052;SDS011;13826;51.186;4.450;2022-09-09T05:17:27;16.77;;;2.80;;
26052;SDS011;13826;51.186;4.450;2022-09-09T05:19:52;15.40;;;3.33;;
26052;SDS011;13826;51.186;4.450;2022-09-09T05:22:21;12.30;;;2.92;;
26052;SDS011;13826;51.186;4.450;2022-09-09T05:24:48;10.68;;;2.67;;
26052;SDS011;13826;51.186;4.450;2022-09-09T05:27:18;16.15;;;3.70;;
26052;SDS011;13826;51.186;4.450;2022-09-09T05:29:44;17.90;;;2.97;;
26052;SDS011;13826;51.186;4.450;2022-09-09T05:32:11;14.55;;;2.80;;
26052;SDS011;13826;51.186;4.450;2022-09-09T05:34:36;11.23;;;3.03;;
26052;SDS011;13826;51.186;4.450;2022-09-09T05:37:03;15.93;;;3.55;;
26052;SDS011;13826;51.186;4.450;2022-09-09T05:39:29;13.98;;;2.67;;
26052;SDS011;13826;51.186;4.450;2022-09-09T05:41:55;23.73;;;4.07;;
26052;SDS011;13826;51.186;4.450;2022-09-09T05:44:21;15.88;;;3.33;;
26052;SDS011;13826;51.186;4.450;2022-09-09T05:46:48;18.92;;;4.05;;
26052;SDS011;13826;51.186;4.450;2022-09-09T05:49:14;11.27;;;2.78;;
26052;SDS011;13826;51.186;4.450;2022-09-09T05:51:40;16.27;;;3.22;;
26052;SDS011;13826;51.186;4.450;2022-09-09T05:54:07;11.75;;;2.83;;
26052;SDS011;13826;51.186;4.450;2022-09-09T05:56:33;13.85;;;2.78;;
26052;SDS011;13826;51.186;4.450;2022-09-09T05:58:59;13.05;;;2.55;;
26052;SDS011;13826;51.186;4.450;2022-09-09T06:03:53;13.07;;;2.63;;
26052;SDS011;13826;51.186;4.450;2022-09-09T06:06:20;9.73;;;2.47;;
26052;SDS011;13826;51.186;4.450;2022-09-09T06:08:47;11.98;;;3.40;;
26052;SDS011;13826;51.186;4.450;2022-09-09T06:11:20;10.95;;;2.38;;
26052;SDS011;13826;51.186;4.450;2022-09-09T06:13:47;20.85;;;3.50;;
26052;SDS011;13826;51.186;4.450;2022-09-09T06:16:17;9.00;;;2.63;;
26052;SDS011;13826;51.186;4.450;2022-09-09T06:18:44;11.43;;;2.55;;
26052;SDS011;13826;51.186;4.450;2022-09-09T06:21:19;12.75;;;3.75;;
26052;SDS011;13826;51.186;4.450;2022-09-09T06:23:47;13.05;;;2.80;;
26052;SDS011;13826;51.186;4.450;2022-09-09T06:26:22;18.90;;;4.03;;
26052;SDS011;13826;51.186;4.450;2022-09-09T06:28:50;12.50;;;2.72;;
26052;SDS011;13826;51.186;4.450;2022-09-09T06:31:18;12.43;;;3.03;;
26052;SDS011;13826;51.186;4.450;2022-09-09T06:33:47;18.75;;;2.85;;
26052;SDS011;13826;51.186;4.450;2022-09-09T06:36:21;15.18;;;3.53;;
26052;SDS011;13826;51.186;4.450;2022-09-09T06:38:52;12.15;;;2.95;;
26052;SDS011;13826;51.186;4.450;2022-09-09T06:41:19;10.25;;;2.53;;
26052;SDS011;13826;51.186;4.450;2022-09-09T06:43:45;9.40;;;2.35;;
26052;SDS011;13826;51.186;4.450;2022-09-09T06:46:13;11.32;;;2.25;;
26052;SDS011;13826;51.186;4.450;2022-09-09T06:48:40;9.80;;;2.40;;
26052;SDS011;13826;51.186;4.450;2022-09-09T06:51:07;13.48;;;2.40;;
26052;SDS011;13826;51.186;4.450;2022-09-09T06:53:36;11.93;;;2.88;;
26052;SDS011;13826;51.186;4.450;2022-09-09T06:59:08;14.68;;;2.83;;
26052;SDS011;13826;51.186;4.450;2022-09-09T07:01:35;19.95;;;2.70;;
26052;SDS011;13826;51.186;4.450;2022-09-09T07:04:03;11.90;;;2.33;;
26052;SDS011;13826;51.186;4.450;2022-09-09T07:06:33;9.30;;;2.30;;
26052;SDS011;13826;51.186;4.450;2022-09-09T07:09:04;12.40;;;2.63;;
26052;SDS011;13826;51.186;4.450;2022-09-09T07:11:38;12.50;;;2.13;;
26052;SDS011;13826;51.186;4.450;2022-09-09T07:14:08;13.57;;;2.28;;
26052;SDS011;13826;51.186;4.450;2022-09-09T07:16:40;11.57;;;3.22;;
26052;SDS011;13826;51.186;4.450;2022-09-09T07:19:07;11.18;;;2.83;;
26052;SDS011;13826;51.186;4.450;2022-09-09T07:21:33;10.82;;;2.50;;
26052;SDS011;13826;51.186;4.450;2022-09-09T07:23:59;16.33;;;2.97;;
26052;SDS011;13826;51.186;4.450;2022-09-09T07:26:26;13.07;;;3.60;;
26052;SDS011;13826;51.186;4.450;2022-09-09T07:28:53;14.65;;;2.63;;
26052;SDS011;13826;51.186;4.450;2022-09-09T07:31:25;12.07;;;3.50;;
26052;SDS011;13826;51.186;4.450;2022-09-09T07:33:52;9.90;;;2.28;;
26052;SDS011;13826;51.186;4.450;2022-09-09T07:36:19;11.13;;;2.92;;
26052;SDS011;13826;51.186;4.450;2022-09-09T07:38:48;13.70;;;2.42;;
26052;SDS011;13826;51.186;4.450;2022-09-09T07:41:17;11.82;;;3.38;;
26052;SDS011;13826;51.186;4.450;2022-09-09T07:43:46;7.03;;;2.10;;
26052;SDS011;13826;51.186;4.450;2022-09-09T07:46:13;10.27;;;2.33;;
26052;SDS011;13826;51.186;4.450;2022-09-09T07:48:44;13.23;;;2.50;;
26052;SDS011;13826;51.186;4.450;2022-09-09T07:51:12;11.98;;;2.72;;
26052;SDS011;13826;51.186;4.450;2022-09-09T07:53:44;11.52;;;2.05;;
26052;SDS011;13826;51.186;4.450;2022-09-09T07:56:14;9.88;;;2.10;;
26052;SDS011;13826;51.186;4.450;2022-09-09T07:58:46;12.33;;;2.40;;
26052;SDS011;13826;51.186;4.450;2022-09-09T08:01:13;13.57;;;3.53;;
26052;SDS011;13826;51.186;4.450;2022-09-09T08:03:44;12.77;;;3.00;;
26052;SDS011;13826;51.186;4.450;2022-09-09T08:06:11;8.50;;;3.00;;
26052;SDS011;13826;51.186;4.450;2022-09-09T08:08:38;7.57;;;2.45;;
26052;SDS011;13826;51.186;4.450;2022-09-09T08:11:11;16.88;;;3.38;;
26052;SDS011;13826;51.186;4.450;2022-09-09T08:13:39;10.80;;;2.63;;
26052;SDS011;13826;51.186;4.450;2022-09-09T08:18:32;9.65;;;2.25;;
26052;SDS011;13826;51.186;4.450;2022-09-09T08:21:04;10.05;;;2.20;;
26052;SDS011;13826;51.186;4.450;2022-09-09T08:23:42;8.15;;;1.63;;
26052;SDS011;13826;51.186;4.450;2022-09-09T08:26:17;12.07;;;2.38;;
26052;SDS011;13826;51.186;4.450;2022-09-09T08:28:47;11.32;;;3.00;;
26052;SDS011;13826;51.186;4.450;2022-09-09T08:31:19;12.85;;;2.45;;
26052;SDS011;13826;51.186;4.450;2022-09-09T08:33:46;9.30;;;2.13;;
26052;SDS011;13826;51.186;4.450;2022-09-09T08:36:22;11.27;;;1.88;;
26052;SDS011;13826;51.186;4.450;2022-09-09T08:38:51;8.65;;;2.30;;
26052;SDS011;13826;51.186;4.450;2022-09-09T08:53:03;4.05;;;1.63;;
26052;SDS011;13826;51.186;4.450;2022-09-09T09:06:18;9.25;;;2.05;;
26052;SDS011;13826;51.186;4.450;2022-09-09T09:11:49;10.48;;;2.35;;
26052;SDS011;13826;51.186;4.450;2022-09-09T09:14:19;11.32;;;2.40;;
26052;SDS011;13826;51.186;4.450;2022-09-09T09:19:25;10.32;;;2.28;;
26052;SDS011;13826;51.186;4.450;2022-09-09T09:22:06;12.57;;;2.40;;
26052;SDS011;13826;51.186;4.450;2022-09-09T09:30:00;6.78;;;2.00;;
26052;SDS011;13826;51.186;4.450;2022-09-09T09:35:28;7.43;;;2.20;;
26052;SDS011;13826;51.186;4.450;2022-09-09T09:37:53;11.35;;;2.75;;
26052;SDS011;13826;51.186;4.450;2022-09-09T09:40:20;11.32;;;3.50;;
26052;SDS011;13826;51.186;4.450;2022-09-09T09:42:48;9.00;;;1.98;;
26052;SDS011;13826;51.186;4.450;2022-09-09T09:48:04;9.73;;;2.30;;
26052;SDS011;13826;51.186;4.450;2022-09-09T09:50:33;13.05;;;2.47;;
26052;SDS011;13826;51.186;4.450;2022-09-09T09:53:03;12.65;;;2.33;;
26052;SDS011;13826;51.186;4.450;2022-09-09T09:55:31;7.68;;;2.33;;
26052;SDS011;13826;51.186;4.450;2022-09-09T09:58:00;14.00;;;2.50;;
26052;SDS011;13826;51.186;4.450;2022-09-09T10:00:28;13.25;;;2.17;;
26052;SDS011;13826;51.186;4.450;2022-09-09T10:02:54;8.20;;;2.20;;
26052;SDS011;13826;51.186;4.450;2022-09-09T10:05:30;6.75;;;2.17;;
26052;SDS011;13826;51.186;4.450;2022-09-09T10:08:15;9.95;;;2.38;;
26052;SDS011;13826;51.186;4.450;2022-09-09T10:16:19;8.35;;;2.15;;
26052;SDS011;13826;51.186;4.450;2022-09-09T10:24:07;11.07;;;2.30;;
26052;SDS011;13826;51.186;4.450;2022-09-09T10:29:40;8.32;;;2.15;;
26052;SDS011;13826;51.186;4.450;2022-09-09T10:40:43;10.32;;;2.00;;
26052;SDS011;13826;51.186;4.450;2022-09-09T10:46:04;7.30;;;1.83;;
26052;SDS011;13826;51.186;4.450;2022-09-09T10:51:22;7.22;;;1.70;;
26052;SDS011;13826;51.186;4.450;2022-09-09T10:56:26;7.35;;;2.15;;
26052;SDS011;13826;51.186;4.450;2022-09-09T10:59:00;8.15;;;2.08;;
26052;SDS011;13826;51.186;4.450;2022-09-09T11:01:47;8.55;;;2.10;;
26052;SDS011;13826;51.186;4.450;2022-09-09T11:04:39;8.75;;;1.88;;
26052;SDS011;13826;51.186;4.450;2022-09-09T11:07:10;7.10;;;1.83;;
26052;SDS011;13826;51.186;4.450;2022-09-09T11:09:46;4.78;;;1.77;;
26052;SDS011;13826;51.186;4.450;2022-09-09T11:12:18;14.35;;;2.30;;
26052;SDS011;13826;51.186;4.450;2022-09-09T11:17:20;7.40;;;2.05;;
26052;SDS011;13826;51.186;4.450;2022-09-09T11:19:49;9.18;;;1.70;;
26052;SDS011;13826;51.186;4.450;2022-09-09T11:33:23;8.88;;;2.58;;
26052;SDS011;13826;51.186;4.450;2022-09-09T11:38:53;4.00;;;1.45;;
26052;SDS011;13826;51.186;4.450;2022-09-09T11:41:40;4.72;;;1.70;;
26052;SDS011;13826;51.186;4.450;2022-09-09T11:44:12;6.40;;;2.10;;
26052;SDS011;13826;51.186;4.450;2022-09-09T11:46:45;6.53;;;1.70;;
26052;SDS011;13826;51.186;4.450;2022-09-09T11:49:27;10.13;;;1.88;;
26052;SDS011;13826;51.186;4.450;2022-09-09T11:51:55;6.75;;;2.00;;
26052;SDS011;13826;51.186;4.450;2022-09-09T11:54:31;5.88;;;1.80;;
26052;SDS011;13826;51.186;4.450;2022-09-09T11:57:00;12.02;;;2.13;;
26052;SDS011;13826;51.186;4.450;2022-09-09T11:59:30;6.97;;;2.00;;
26052;SDS011;13826;51.186;4.450;2022-09-09T12:02:01;7.38;;;1.30;;
26052;SDS011;13826;51.186;4.450;2022-09-09T12:06:58;5.32;;;1.52;;
26052;SDS011;13826;51.186;4.450;2022-09-09T12:14:54;3.72;;;1.00;;
26052;SDS011;13826;51.186;4.450;2022-09-09T12:17:23;8.25;;;1.50;;
26052;SDS011;13826;51.186;4.450;2022-09-09T12:28:21;6.32;;;1.52;;
26052;SDS011;13826;51.186;4.450;2022-09-09T12:33:37;6.22;;;2.00;;
26052;SDS011;13826;51.186;4.450;2022-09-09T12:36:11;6.35;;;1.63;;
26052;SDS011;13826;51.186;4.450;2022-09-09T12:38:41;10.20;;;1.90;;
26052;SDS011;13826;51.186;4.450;2022-09-09T12:41:17;10.13;;;2.20;;
26052;SDS011;13826;51.186;4.450;2022-09-09T12:43:48;9.90;;;3.05;;
26052;SDS011;13826;51.186;4.450;2022-09-09T12:46:27;7.78;;;1.75;;
26052;SDS011;13826;51.186;4.450;2022-09-09T12:49:18;6.05;;;2.45;;
26052;SDS011;13826;51.186;4.450;2022-09-09T12:52:04;6.95;;;1.27;;
26052;SDS011;13826;51.186;4.450;2022-09-09T12:54:34;8.35;;;1.98;;
26052;SDS011;13826;51.186;4.450;2022-09-09T12:57:02;6.18;;;2.03;;
26052;SDS011;13826;51.186;4.450;2022-09-09T12:59:36;7.97;;;2.20;;
26052;SDS011;13826;51.186;4.450;2022-09-09T13:02:18;5.60;;;1.77;;
26052;SDS011;13826;51.186;4.450;2022-09-09T13:04:46;6.25;;;1.92;;
26052;SDS011;13826;51.186;4.450;2022-09-09T13:07:12;8.05;;;2.53;;
26052;SDS011;13826;51.186;4.450;2022-09-09T13:09:38;7.53;;;2.30;;
26052;SDS011;13826;51.186;4.450;2022-09-09T13:12:05;7.88;;;2.28;;
26052;SDS011;13826;51.186;4.450;2022-09-09T13:14:38;6.85;;;2.13;;
26052;SDS011;13826;51.186;4.450;2022-09-09T13:17:05;7.70;;;2.28;;
26052;SDS011;13826;51.186;4.450;2022-09-09T13:19:33;7.10;;;1.90;;
26052;SDS011;13826;51.186;4.450;2022-09-09T13:22:16;9.05;;;2.25;;
26052;SDS011;13826;51.186;4.450;2022-09-09T13:25:04;5.03;;;1.65;;
26052;SDS011;13826;51.186;4.450;2022-09-09T13:27:40;8.45;;;1.70;;
26052;SDS011;13826;51.186;4.450;2022-09-09T13:30:24;3.92;;;1.45;;
26052;SDS011;13826;51.186;4.450;2022-09-09T13:33:02;5.25;;;1.85;;
26052;SDS011;13826;51.186;4.450;2022-09-09T13:35:31;8.68;;;2.10;;
26052;SDS011;13826;51.186;4.450;2022-09-09T13:37:58;5.82;;;1.45;;
26052;SDS011;13826;51.186;4.450;2022-09-09T13:40:32;5.18;;;1.90;;
26052;SDS011;13826;51.186;4.450;2022-09-09T13:42:59;6.00;;;2.53;;
26052;SDS011;13826;51.186;4.450;2022-09-09T13:45:26;7.05;;;1.35;;
26052;SDS011;13826;51.186;4.450;2022-09-09T13:47:52;8.82;;;2.50;;
26052;SDS011;13826;51.186;4.450;2022-09-09T13:52:55;5.28;;;1.50;;
26052;SDS011;13826;51.186;4.450;2022-09-09T13:55:28;9.07;;;1.80;;
26052;SDS011;13826;51.186;4.450;2022-09-09T13:57:58;10.00;;;1.80;;
26052;SDS011;13826;51.186;4.450;2022-09-09T14:00:26;5.63;;;2.70;;
26052;SDS011;13826;51.186;4.450;2022-09-09T14:02:55;7.57;;;1.83;;
26052;SDS011;13826;51.186;4.450;2022-09-09T14:05:20;6.20;;;1.70;;
26052;SDS011;13826;51.186;4.450;2022-09-09T14:07:50;5.07;;;1.65;;
26052;SDS011;13826;51.186;4.450;2022-09-09T14:10:16;3.88;;;1.38;;
26052;SDS011;13826;51.186;4.450;2022-09-09T14:12:42;4.57;;;1.50;;
26052;SDS011;13826;51.186;4.450;2022-09-09T14:15:09;7.05;;;1.60;;
26052;SDS011;13826;51.186;4.450;2022-09-09T14:17:36;5.95;;;1.38;;
26052;SDS011;13826;51.186;4.450;2022-09-09T14:20:05;7.10;;;1.63;;
26052;SDS011;13826;51.186;4.450;2022-09-09T14:22:40;11.10;;;1.40;;
26052;SDS011;13826;51.186;4.450;2022-09-09T14:25:06;6.57;;;1.40;;
26052;SDS011;13826;51.186;4.450;2022-09-09T14:27:32;2.25;;;1.13;;
26052;SDS011;13826;51.186;4.450;2022-09-09T14:29:58;5.13;;;1.70;;
26052;SDS011;13826;51.186;4.450;2022-09-09T14:32:25;4.88;;;1.70;;
26052;SDS011;13826;51.186;4.450;2022-09-09T14:34:51;5.25;;;1.35;;
26052;SDS011;13826;51.186;4.450;2022-09-09T14:37:17;5.88;;;1.65;;
26052;SDS011;13826;51.186;4.450;2022-09-09T14:39:51;6.70;;;1.88;;
26052;SDS011;13826;51.186;4.450;2022-09-09T14:42:20;4.00;;;1.70;;
26052;SDS011;13826;51.186;4.450;2022-09-09T14:44:47;4.50;;;1.67;;
26052;SDS011;13826;51.186;4.450;2022-09-09T14:47:12;6.50;;;1.63;;
26052;SDS011;13826;51.186;4.450;2022-09-09T14:49:38;4.03;;;1.60;;
26052;SDS011;13826;51.186;4.450;2022-09-09T14:52:04;8.55;;;2.42;;
26052;SDS011;13826;51.186;4.450;2022-09-09T14:54:31;6.68;;;2.08;;
26052;SDS011;13826;51.186;4.450;2022-09-09T14:56:57;6.03;;;2.13;;
26052;SDS011;13826;51.186;4.450;2022-09-09T14:59:23;7.38;;;2.28;;
26052;SDS011;13826;51.186;4.450;2022-09-09T15:01:48;7.70;;;1.70;;
26052;SDS011;13826;51.186;4.450;2022-09-09T15:04:14;10.68;;;2.05;;
26052;SDS011;13826;51.186;4.450;2022-09-09T15:06:41;7.65;;;2.22;;
26052;SDS011;13826;51.186;4.450;2022-09-09T15:09:09;5.65;;;2.10;;
26052;SDS011;13826;51.186;4.450;2022-09-09T15:11:36;3.78;;;1.55;;
26052;SDS011;13826;51.186;4.450;2022-09-09T15:14:03;4.32;;;1.42;;
26052;SDS011;13826;51.186;4.450;2022-09-09T15:16:29;12.38;;;2.50;;
26052;SDS011;13826;51.186;4.450;2022-09-09T15:18:57;5.30;;;1.05;;
26052;SDS011;13826;51.186;4.450;2022-09-09T15:21:24;4.57;;;1.10;;
26052;SDS011;13826;51.186;4.450;2022-09-09T15:23:55;3.50;;;1.30;;
26052;SDS011;13826;51.186;4.450;2022-09-09T15:26:22;3.80;;;1.30;;
26052;SDS011;13826;51.186;4.450;2022-09-09T15:28:48;6.55;;;1.08;;
26052;SDS011;13826;51.186;4.450;2022-09-09T15:31:26;7.13;;;1.40;;
26052;SDS011;13826;51.186;4.450;2022-09-09T15:33:54;1.90;;;1.00;;
26052;SDS011;13826;51.186;4.450;2022-09-09T15:36:31;3.60;;;1.40;;
26052;SDS011;13826;51.186;4.450;2022-09-09T15:39:02;3.33;;;1.20;;
26052;SDS011;13826;51.186;4.450;2022-09-09T15:41:29;3.22;;;1.25;;
26052;SDS011;13826;51.186;4.450;2022-09-09T15:43:56;3.47;;;1.10;;
26052;SDS011;13826;51.186;4.450;2022-09-09T15:46:35;2.80;;;1.00;;
26052;SDS011;13826;51.186;4.450;2022-09-09T15:51:36;4.22;;;1.15;;
26052;SDS011;13826;51.186;4.450;2022-09-09T15:54:03;3.47;;;1.30;;
26052;SDS011;13826;51.186;4.450;2022-09-09T15:56:30;1.73;;;0.90;;
26052;SDS011;13826;51.186;4.450;2022-09-09T15:58:57;3.47;;;1.30;;
26052;SDS011;13826;51.186;4.450;2022-09-09T16:01:24;3.55;;;1.33;;
26052;SDS011;13826;51.186;4.450;2022-09-09T16:03:52;5.95;;;1.27;;
26052;SDS011;13826;51.186;4.450;2022-09-09T16:06:19;3.45;;;1.35;;
26052;SDS011;13826;51.186;4.450;2022-09-09T16:08:47;5.22;;;2.00;;
26052;SDS011;13826;51.186;4.450;2022-09-09T16:11:18;2.95;;;1.48;;
26052;SDS011;13826;51.186;4.450;2022-09-09T16:13:49;7.32;;;1.48;;
26052;SDS011;13826;51.186;4.450;2022-09-09T16:16:17;3.95;;;1.23;;
26052;SDS011;13826;51.186;4.450;2022-09-09T16:18:47;10.18;;;1.70;;
26052;SDS011;13826;51.186;4.450;2022-09-09T16:21:24;5.35;;;1.42;;
26052;SDS011;13826;51.186;4.450;2022-09-09T16:23:58;5.07;;;1.38;;
26052;SDS011;13826;51.186;4.450;2022-09-09T16:26:25;4.35;;;1.17;;
26052;SDS011;13826;51.186;4.450;2022-09-09T16:28:52;1.92;;;1.10;;
26052;SDS011;13826;51.186;4.450;2022-09-09T16:31:20;4.28;;;1.25;;
26052;SDS011;13826;51.186;4.450;2022-09-09T16:33:48;3.72;;;1.40;;
26052;SDS011;13826;51.186;4.450;2022-09-09T16:36:16;4.85;;;1.48;;
26052;SDS011;13826;51.186;4.450;2022-09-09T16:38:53;3.17;;;1.63;;
26052;SDS011;13826;51.186;4.450;2022-09-09T16:41:22;4.50;;;1.30;;
26052;SDS011;13826;51.186;4.450;2022-09-09T16:43:55;7.82;;;1.65;;
26052;SDS011;13826;51.186;4.450;2022-09-09T16:46:23;7.47;;;1.98;;
26052;SDS011;13826;51.186;4.450;2022-09-09T16:48:49;5.85;;;1.80;;
26052;SDS011;13826;51.186;4.450;2022-09-09T16:51:19;3.70;;;1.60;;
26052;SDS011;13826;51.186;4.450;2022-09-09T16:53:50;7.60;;;2.20;;
26052;SDS011;13826;51.186;4.450;2022-09-09T16:56:18;5.53;;;1.92;;
26052;SDS011;13826;51.186;4.450;2022-09-09T16:58:51;7.13;;;2.20;;
26052;SDS011;13826;51.186;4.450;2022-09-09T17:01:22;7.00;;;2.20;;
26052;SDS011;13826;51.186;4.450;2022-09-09T17:03:52;8.07;;;2.50;;
26052;SDS011;13826;51.186;4.450;2022-09-09T17:06:22;9.38;;;3.22;;
26052;SDS011;13826;51.186;4.450;2022-09-09T17:08:53;11.82;;;3.78;;
26052;SDS011;13826;51.186;4.450;2022-09-09T17:11:23;9.35;;;3.25;;
26052;SDS011;13826;51.186;4.450;2022-09-09T17:13:49;9.20;;;2.85;;
26052;SDS011;13826;51.186;4.450;2022-09-09T17:16:16;4.85;;;2.65;;
26052;SDS011;13826;51.186;4.450;2022-09-09T17:18:43;9.27;;;2.97;;
26052;SDS011;13826;51.186;4.450;2022-09-09T17:21:14;9.15;;;3.15;;
26052;SDS011;13826;51.186;4.450;2022-09-09T17:23:43;11.50;;;3.65;;
26052;SDS011;13826;51.186;4.450;2022-09-09T17:26:09;7.90;;;3.22;;
26052;SDS011;13826;51.186;4.450;2022-09-09T17:28:38;8.20;;;3.22;;
26052;SDS011;13826;51.186;4.450;2022-09-09T17:31:07;7.43;;;3.13;;
26052;SDS011;13826;51.186;4.450;2022-09-09T17:33:36;7.07;;;2.80;;
26052;SDS011;13826;51.186;4.450;2022-09-09T17:36:11;7.47;;;2.75;;
26052;SDS011;13826;51.186;4.450;2022-09-09T17:38:39;5.93;;;2.70;;
26052;SDS011;13826;51.186;4.450;2022-09-09T17:41:09;9.30;;;2.65;;
26052;SDS011;13826;51.186;4.450;2022-09-09T17:43:37;4.25;;;2.50;;
26052;SDS011;13826;51.186;4.450;2022-09-09T17:46:07;7.65;;;2.58;;
26052;SDS011;13826;51.186;4.450;2022-09-09T17:48:34;8.90;;;3.00;;
26052;SDS011;13826;51.186;4.450;2022-09-09T17:51:04;7.82;;;2.75;;
26052;SDS011;13826;51.186;4.450;2022-09-09T17:53:36;10.38;;;2.67;;